sensor_id;sensor_type;location;lat;lon;timestamp;P1;durP1;ratioP1;P2;durP2;ratioP2
62693;SDS011;48759;52.544;13.418;2024-01-06T00:02:21;38.27;;;21.40;;
62693;SDS011;48759;52.544;13.418;2024-01-06T00:04:51;41.40;;;23.63;;
62693;SDS011;48759;52.544;13.418;2024-01-06T00:07:17;36.37;;;22.43;;
62693;SDS011;48759;52.544;13.418;2024-01-06T00:09:46;42.27;;;22.63;;
62693;SDS011;48759;52.544;13.418;2024-01-06T00:12:14;41.37;;;23.93;;
62693;SDS011;48759;52.544;13.418;2024-01-06T00:14:42;42.27;;;24.70;;
62693;SDS011;48759;52.544;13.418;2024-01-06T00:17:10;37.57;;;21.83;;
62693;SDS011;48759;52.544;13.418;2024-01-06T00:19:36;39.30;;;24.27;;
62693;SDS011;48759;52.544;13.418;2024-01-06T00:22:03;39.07;;;23.63;;
62693;SDS011;48759;52.544;13.418;2024-01-06T00:24:32;42.33;;;21.50;;
62693;SDS011;48759;52.544;13.418;2024-01-06T00:26:59;36.73;;;21.37;;
62693;SDS011;48759;52.544;13.418;2024-01-06T00:29:26;38.70;;;23.10;;
62693;SDS011;48759;52.544;13.418;2024-01-06T00:31:55;41.20;;;22.93;;
62693;SDS011;48759;52.544;13.418;2024-01-06T00:34:21;37.50;;;22.60;;
62693;SDS011;48759;52.544;13.418;2024-01-06T00:36:48;39.23;;;23.37;;
62693;SDS011;48759;52.544;13.418;2024-01-06T00:39:15;44.17;;;24.60;;
62693;SDS011;48759;52.544;13.418;2024-01-06T00:41:43;38.50;;;22.13;;
62693;SDS011;48759;52.544;13.418;2024-01-06T00:44:11;31.60;;;20.30;;
62693;SDS011;48759;52.544;13.418;2024-01-06T00:46:38;33.00;;;20.50;;
62693;SDS011;48759;52.544;13.418;2024-01-06T00:49:08;34.13;;;21.50;;
62693;SDS011;48759;52.544;13.418;2024-01-06T00:51:35;38.73;;;20.93;;
62693;SDS011;48759;52.544;13.418;2024-01-06T00:54:02;32.10;;;19.77;;
62693;SDS011;48759;52.544;13.418;2024-01-06T00:56:29;42.53;;;21.27;;
62693;SDS011;48759;52.544;13.418;2024-01-06T00:58:55;38.60;;;21.33;;
62693;SDS011;48759;52.544;13.418;2024-01-06T01:01:22;42.67;;;21.60;;
62693;SDS011;48759;52.544;13.418;2024-01-06T01:03:49;35.37;;;20.87;;
62693;SDS011;48759;52.544;13.418;2024-01-06T01:06:16;40.00;;;20.97;;
62693;SDS011;48759;52.544;13.418;2024-01-06T01:08:45;36.33;;;21.60;;
62693;SDS011;48759;52.544;13.418;2024-01-06T01:11:12;34.67;;;21.40;;
62693;SDS011;48759;52.544;13.418;2024-01-06T01:13:38;35.67;;;19.70;;
62693;SDS011;48759;52.544;13.418;2024-01-06T01:16:07;32.93;;;19.67;;
62693;SDS011;48759;52.544;13.418;2024-01-06T01:18:34;32.40;;;21.07;;
62693;SDS011;48759;52.544;13.418;2024-01-06T01:21:01;34.30;;;19.93;;
62693;SDS011;48759;52.544;13.418;2024-01-06T01:23:29;35.73;;;20.87;;
62693;SDS011;48759;52.544;13.418;2024-01-06T01:25:55;36.30;;;20.90;;
62693;SDS011;48759;52.544;13.418;2024-01-06T01:28:21;36.33;;;19.80;;
62693;SDS011;48759;52.544;13.418;2024-01-06T01:30:49;30.87;;;20.20;;
62693;SDS011;48759;52.544;13.418;2024-01-06T01:33:15;42.70;;;21.57;;
62693;SDS011;48759;52.544;13.418;2024-01-06T01:35:42;37.30;;;20.97;;
62693;SDS011;48759;52.544;13.418;2024-01-06T01:38:08;32.00;;;18.33;;
62693;SDS011;48759;52.544;13.418;2024-01-06T01:40:39;40.20;;;21.20;;
62693;SDS011;48759;52.544;13.418;2024-01-06T01:43:05;40.27;;;20.27;;
62693;SDS011;48759;52.544;13.418;2024-01-06T01:45:32;34.53;;;20.57;;
62693;SDS011;48759;52.544;13.418;2024-01-06T01:47:58;33.00;;;20.53;;
62693;SDS011;48759;52.544;13.418;2024-01-06T01:50:25;36.37;;;19.97;;
62693;SDS011;48759;52.544;13.418;2024-01-06T01:52:53;34.70;;;19.87;;
62693;SDS011;48759;52.544;13.418;2024-01-06T01:55:21;35.53;;;21.00;;
62693;SDS011;48759;52.544;13.418;2024-01-06T01:57:49;36.87;;;20.17;;
62693;SDS011;48759;52.544;13.418;2024-01-06T02:00:15;34.13;;;19.30;;
62693;SDS011;48759;52.544;13.418;2024-01-06T02:02:43;36.03;;;19.23;;
62693;SDS011;48759;52.544;13.418;2024-01-06T02:05:10;31.40;;;19.20;;
62693;SDS011;48759;52.544;13.418;2024-01-06T02:07:36;31.07;;;19.20;;
62693;SDS011;48759;52.544;13.418;2024-01-06T02:10:03;35.03;;;20.60;;
62693;SDS011;48759;52.544;13.418;2024-01-06T02:12:31;31.37;;;19.80;;
62693;SDS011;48759;52.544;13.418;2024-01-06T02:15:01;37.87;;;20.53;;
62693;SDS011;48759;52.544;13.418;2024-01-06T02:17:27;35.37;;;19.70;;
62693;SDS011;48759;52.544;13.418;2024-01-06T02:19:55;34.67;;;19.07;;
62693;SDS011;48759;52.544;13.418;2024-01-06T02:22:24;33.00;;;20.47;;
62693;SDS011;48759;52.544;13.418;2024-01-06T02:24:51;36.20;;;19.13;;
62693;SDS011;48759;52.544;13.418;2024-01-06T02:27:19;32.83;;;18.87;;
62693;SDS011;48759;52.544;13.418;2024-01-06T02:29:46;34.03;;;21.00;;
62693;SDS011;48759;52.544;13.418;2024-01-06T02:32:12;34.97;;;19.57;;
62693;SDS011;48759;52.544;13.418;2024-01-06T02:34:41;34.50;;;18.60;;
62693;SDS011;48759;52.544;13.418;2024-01-06T02:37:08;31.73;;;18.70;;
62693;SDS011;48759;52.544;13.418;2024-01-06T02:39:36;32.20;;;18.10;;
62693;SDS011;48759;52.544;13.418;2024-01-06T02:42:03;27.10;;;17.37;;
62693;SDS011;48759;52.544;13.418;2024-01-06T02:44:30;32.33;;;18.70;;
62693;SDS011;48759;52.544;13.418;2024-01-06T02:46:56;36.03;;;19.57;;
62693;SDS011;48759;52.544;13.418;2024-01-06T02:49:24;32.23;;;19.40;;
62693;SDS011;48759;52.544;13.418;2024-01-06T02:51:54;34.33;;;20.33;;
62693;SDS011;48759;52.544;13.418;2024-01-06T02:54:21;30.80;;;19.20;;
62693;SDS011;48759;52.544;13.418;2024-01-06T02:56:50;32.20;;;18.77;;
62693;SDS011;48759;52.544;13.418;2024-01-06T02:59:17;36.47;;;20.43;;
62693;SDS011;48759;52.544;13.418;2024-01-06T03:01:44;37.37;;;19.87;;
62693;SDS011;48759;52.544;13.418;2024-01-06T03:04:11;34.83;;;18.10;;
62693;SDS011;48759;52.544;13.418;2024-01-06T03:06:38;31.20;;;18.90;;
62693;SDS011;48759;52.544;13.418;2024-01-06T03:09:04;31.53;;;18.10;;
62693;SDS011;48759;52.544;13.418;2024-01-06T03:11:31;41.20;;;20.20;;
62693;SDS011;48759;52.544;13.418;2024-01-06T03:13:59;35.47;;;19.17;;
62693;SDS011;48759;52.544;13.418;2024-01-06T03:16:26;32.40;;;18.90;;
62693;SDS011;48759;52.544;13.418;2024-01-06T03:18:52;42.40;;;20.27;;
62693;SDS011;48759;52.544;13.418;2024-01-06T03:21:21;35.70;;;19.60;;
62693;SDS011;48759;52.544;13.418;2024-01-06T03:23:48;33.37;;;18.70;;
62693;SDS011;48759;52.544;13.418;2024-01-06T03:26:20;33.60;;;19.27;;
62693;SDS011;48759;52.544;13.418;2024-01-06T03:28:48;38.13;;;20.07;;
62693;SDS011;48759;52.544;13.418;2024-01-06T03:31:19;37.30;;;19.37;;
62693;SDS011;48759;52.544;13.418;2024-01-06T03:33:47;34.27;;;18.93;;
62693;SDS011;48759;52.544;13.418;2024-01-06T03:36:14;35.97;;;19.30;;
62693;SDS011;48759;52.544;13.418;2024-01-06T03:38:42;34.20;;;20.97;;
62693;SDS011;48759;52.544;13.418;2024-01-06T03:41:11;36.07;;;21.10;;
62693;SDS011;48759;52.544;13.418;2024-01-06T03:43:37;29.57;;;18.90;;
62693;SDS011;48759;52.544;13.418;2024-01-06T03:46:04;34.27;;;20.23;;
62693;SDS011;48759;52.544;13.418;2024-01-06T03:48:33;36.80;;;19.47;;
62693;SDS011;48759;52.544;13.418;2024-01-06T03:50:59;35.47;;;19.60;;
62693;SDS011;48759;52.544;13.418;2024-01-06T03:53:26;32.90;;;19.27;;
62693;SDS011;48759;52.544;13.418;2024-01-06T03:55:53;31.43;;;18.80;;
62693;SDS011;48759;52.544;13.418;2024-01-06T03:58:19;34.20;;;19.37;;
62693;SDS011;48759;52.544;13.418;2024-01-06T04:00:46;37.07;;;20.47;;
62693;SDS011;48759;52.544;13.418;2024-01-06T04:03:12;37.70;;;19.43;;
62693;SDS011;48759;52.544;13.418;2024-01-06T04:05:42;33.33;;;20.10;;
62693;SDS011;48759;52.544;13.418;2024-01-06T04:08:08;36.13;;;21.60;;
62693;SDS011;48759;52.544;13.418;2024-01-06T04:10:35;35.10;;;19.80;;
62693;SDS011;48759;52.544;13.418;2024-01-06T04:13:02;43.10;;;20.97;;
62693;SDS011;48759;52.544;13.418;2024-01-06T04:15:29;36.23;;;20.13;;
62693;SDS011;48759;52.544;13.418;2024-01-06T04:17:55;40.10;;;20.87;;
62693;SDS011;48759;52.544;13.418;2024-01-06T04:20:22;38.30;;;22.00;;
62693;SDS011;48759;52.544;13.418;2024-01-06T04:22:50;33.13;;;18.80;;
62693;SDS011;48759;52.544;13.418;2024-01-06T04:25:16;37.50;;;19.80;;
62693;SDS011;48759;52.544;13.418;2024-01-06T04:27:42;31.57;;;19.37;;
62693;SDS011;48759;52.544;13.418;2024-01-06T04:30:10;35.57;;;20.23;;
62693;SDS011;48759;52.544;13.418;2024-01-06T04:32:38;39.13;;;20.60;;
62693;SDS011;48759;52.544;13.418;2024-01-06T04:35:05;37.00;;;20.27;;
62693;SDS011;48759;52.544;13.418;2024-01-06T04:37:32;39.37;;;19.80;;
62693;SDS011;48759;52.544;13.418;2024-01-06T04:40:01;35.57;;;20.37;;
62693;SDS011;48759;52.544;13.418;2024-01-06T04:42:28;36.27;;;20.60;;
62693;SDS011;48759;52.544;13.418;2024-01-06T04:45:03;36.50;;;21.03;;
62693;SDS011;48759;52.544;13.418;2024-01-06T04:47:30;35.13;;;20.87;;
62693;SDS011;48759;52.544;13.418;2024-01-06T04:49:56;35.00;;;20.90;;
62693;SDS011;48759;52.544;13.418;2024-01-06T04:52:23;43.27;;;20.27;;
62693;SDS011;48759;52.544;13.418;2024-01-06T04:54:52;38.17;;;22.70;;
62693;SDS011;48759;52.544;13.418;2024-01-06T04:57:21;37.97;;;20.83;;
62693;SDS011;48759;52.544;13.418;2024-01-06T04:59:47;37.13;;;19.40;;
62693;SDS011;48759;52.544;13.418;2024-01-06T05:02:14;42.57;;;21.47;;
62693;SDS011;48759;52.544;13.418;2024-01-06T05:04:43;38.00;;;22.00;;
62693;SDS011;48759;52.544;13.418;2024-01-06T05:07:11;38.37;;;20.83;;
62693;SDS011;48759;52.544;13.418;2024-01-06T05:09:37;39.97;;;21.67;;
62693;SDS011;48759;52.544;13.418;2024-01-06T05:12:05;36.67;;;20.90;;
62693;SDS011;48759;52.544;13.418;2024-01-06T05:14:34;42.70;;;22.03;;
62693;SDS011;48759;52.544;13.418;2024-01-06T05:17:02;40.70;;;22.37;;
62693;SDS011;48759;52.544;13.418;2024-01-06T05:19:29;38.13;;;21.63;;
62693;SDS011;48759;52.544;13.418;2024-01-06T05:21:56;48.80;;;22.33;;
62693;SDS011;48759;52.544;13.418;2024-01-06T05:24:23;42.87;;;22.43;;
62693;SDS011;48759;52.544;13.418;2024-01-06T05:26:53;42.80;;;22.47;;
62693;SDS011;48759;52.544;13.418;2024-01-06T05:29:20;46.30;;;23.60;;
62693;SDS011;48759;52.544;13.418;2024-01-06T05:31:49;35.70;;;21.67;;
62693;SDS011;48759;52.544;13.418;2024-01-06T05:34:16;45.37;;;23.30;;
62693;SDS011;48759;52.544;13.418;2024-01-06T05:36:43;39.80;;;22.27;;
62693;SDS011;48759;52.544;13.418;2024-01-06T05:39:12;43.43;;;22.83;;
62693;SDS011;48759;52.544;13.418;2024-01-06T05:41:38;49.30;;;24.53;;
62693;SDS011;48759;52.544;13.418;2024-01-06T05:44:05;43.33;;;22.93;;
62693;SDS011;48759;52.544;13.418;2024-01-06T05:46:33;39.20;;;22.70;;
62693;SDS011;48759;52.544;13.418;2024-01-06T05:49:01;44.37;;;22.13;;
62693;SDS011;48759;52.544;13.418;2024-01-06T05:51:28;40.43;;;22.83;;
62693;SDS011;48759;52.544;13.418;2024-01-06T05:53:55;41.20;;;21.50;;
62693;SDS011;48759;52.544;13.418;2024-01-06T05:56:22;38.70;;;23.07;;
62693;SDS011;48759;52.544;13.418;2024-01-06T05:58:49;46.37;;;23.97;;
62693;SDS011;48759;52.544;13.418;2024-01-06T06:01:16;41.27;;;22.37;;
62693;SDS011;48759;52.544;13.418;2024-01-06T06:03:42;43.97;;;23.00;;
62693;SDS011;48759;52.544;13.418;2024-01-06T06:06:12;44.40;;;23.40;;
62693;SDS011;48759;52.544;13.418;2024-01-06T06:08:39;44.83;;;22.57;;
62693;SDS011;48759;52.544;13.418;2024-01-06T06:11:06;42.23;;;22.87;;
62693;SDS011;48759;52.544;13.418;2024-01-06T06:13:36;40.07;;;22.07;;
62693;SDS011;48759;52.544;13.418;2024-01-06T06:16:03;41.57;;;22.90;;
62693;SDS011;48759;52.544;13.418;2024-01-06T06:18:33;43.33;;;21.37;;
62693;SDS011;48759;52.544;13.418;2024-01-06T06:21:02;36.70;;;21.50;;
62693;SDS011;48759;52.544;13.418;2024-01-06T06:23:31;41.57;;;21.80;;
62693;SDS011;48759;52.544;13.418;2024-01-06T06:25:58;41.73;;;22.40;;
62693;SDS011;48759;52.544;13.418;2024-01-06T06:28:25;45.37;;;24.33;;
62693;SDS011;48759;52.544;13.418;2024-01-06T06:31:06;41.40;;;21.63;;
62693;SDS011;48759;52.544;13.418;2024-01-06T06:33:32;42.80;;;22.37;;
62693;SDS011;48759;52.544;13.418;2024-01-06T06:35:59;42.17;;;22.20;;
62693;SDS011;48759;52.544;13.418;2024-01-06T06:38:26;41.37;;;21.50;;
62693;SDS011;48759;52.544;13.418;2024-01-06T06:40:54;39.80;;;20.97;;
62693;SDS011;48759;52.544;13.418;2024-01-06T06:43:21;43.20;;;21.57;;
62693;SDS011;48759;52.544;13.418;2024-01-06T06:45:48;47.30;;;22.70;;
62693;SDS011;48759;52.544;13.418;2024-01-06T06:48:15;44.60;;;22.20;;
62693;SDS011;48759;52.544;13.418;2024-01-06T06:50:44;42.27;;;21.60;;
62693;SDS011;48759;52.544;13.418;2024-01-06T06:53:11;37.43;;;20.40;;
62693;SDS011;48759;52.544;13.418;2024-01-06T06:55:41;39.17;;;20.77;;
62693;SDS011;48759;52.544;13.418;2024-01-06T06:58:09;46.67;;;22.03;;
62693;SDS011;48759;52.544;13.418;2024-01-06T07:00:36;45.37;;;22.40;;
62693;SDS011;48759;52.544;13.418;2024-01-06T07:03:03;43.53;;;22.00;;
62693;SDS011;48759;52.544;13.418;2024-01-06T07:05:30;38.10;;;21.10;;
62693;SDS011;48759;52.544;13.418;2024-01-06T07:07:56;39.57;;;20.83;;
62693;SDS011;48759;52.544;13.418;2024-01-06T07:10:23;45.80;;;22.77;;
62693;SDS011;48759;52.544;13.418;2024-01-06T07:12:50;43.33;;;21.57;;
62693;SDS011;48759;52.544;13.418;2024-01-06T07:15:22;42.77;;;20.27;;
62693;SDS011;48759;52.544;13.418;2024-01-06T07:17:48;44.43;;;23.93;;
62693;SDS011;48759;52.544;13.418;2024-01-06T07:20:15;47.57;;;23.67;;
62693;SDS011;48759;52.544;13.418;2024-01-06T07:22:42;50.00;;;23.90;;
62693;SDS011;48759;52.544;13.418;2024-01-06T07:25:09;46.70;;;23.10;;
62693;SDS011;48759;52.544;13.418;2024-01-06T07:27:36;49.00;;;24.27;;
62693;SDS011;48759;52.544;13.418;2024-01-06T07:30:04;44.10;;;23.77;;
62693;SDS011;48759;52.544;13.418;2024-01-06T07:32:33;46.17;;;22.10;;
62693;SDS011;48759;52.544;13.418;2024-01-06T07:35:00;46.90;;;22.43;;
62693;SDS011;48759;52.544;13.418;2024-01-06T07:37:27;50.03;;;23.40;;
62693;SDS011;48759;52.544;13.418;2024-01-06T07:39:54;46.63;;;23.27;;
62693;SDS011;48759;52.544;13.418;2024-01-06T07:42:21;44.20;;;24.23;;
62693;SDS011;48759;52.544;13.418;2024-01-06T07:44:47;44.83;;;22.27;;
62693;SDS011;48759;52.544;13.418;2024-01-06T07:47:16;49.60;;;24.37;;
62693;SDS011;48759;52.544;13.418;2024-01-06T07:49:45;48.57;;;23.63;;
62693;SDS011;48759;52.544;13.418;2024-01-06T07:52:32;44.00;;;23.40;;
62693;SDS011;48759;52.544;13.418;2024-01-06T07:55:02;44.60;;;24.33;;
62693;SDS011;48759;52.544;13.418;2024-01-06T07:57:30;46.77;;;24.17;;
62693;SDS011;48759;52.544;13.418;2024-01-06T07:59:56;52.33;;;24.23;;
62693;SDS011;48759;52.544;13.418;2024-01-06T08:02:23;55.47;;;25.93;;
62693;SDS011;48759;52.544;13.418;2024-01-06T08:05:01;53.33;;;23.83;;
62693;SDS011;48759;52.544;13.418;2024-01-06T08:07:28;52.20;;;24.87;;
62693;SDS011;48759;52.544;13.418;2024-01-06T08:09:55;51.00;;;24.93;;
62693;SDS011;48759;52.544;13.418;2024-01-06T08:12:21;44.27;;;21.70;;
62693;SDS011;48759;52.544;13.418;2024-01-06T08:14:47;44.90;;;23.60;;
62693;SDS011;48759;52.544;13.418;2024-01-06T08:17:14;54.97;;;25.90;;
62693;SDS011;48759;52.544;13.418;2024-01-06T08:19:41;56.50;;;25.53;;
62693;SDS011;48759;52.544;13.418;2024-01-06T08:22:09;61.73;;;28.33;;
62693;SDS011;48759;52.544;13.418;2024-01-06T08:24:36;64.57;;;29.30;;
62693;SDS011;48759;52.544;13.418;2024-01-06T08:27:04;53.60;;;25.40;;
62693;SDS011;48759;52.544;13.418;2024-01-06T08:29:35;64.33;;;28.00;;
62693;SDS011;48759;52.544;13.418;2024-01-06T08:32:03;58.00;;;25.37;;
62693;SDS011;48759;52.544;13.418;2024-01-06T08:34:30;65.97;;;29.63;;
62693;SDS011;48759;52.544;13.418;2024-01-06T08:36:56;56.50;;;25.97;;
62693;SDS011;48759;52.544;13.418;2024-01-06T08:39:28;66.80;;;29.27;;
62693;SDS011;48759;52.544;13.418;2024-01-06T08:41:55;55.90;;;26.77;;
62693;SDS011;48759;52.544;13.418;2024-01-06T08:44:22;52.33;;;25.70;;
62693;SDS011;48759;52.544;13.418;2024-01-06T08:46:48;58.83;;;26.13;;
62693;SDS011;48759;52.544;13.418;2024-01-06T08:49:15;46.60;;;24.50;;
62693;SDS011;48759;52.544;13.418;2024-01-06T08:51:44;51.97;;;24.23;;
62693;SDS011;48759;52.544;13.418;2024-01-06T08:54:12;53.60;;;26.77;;
62693;SDS011;48759;52.544;13.418;2024-01-06T08:56:41;51.00;;;27.87;;
62693;SDS011;48759;52.544;13.418;2024-01-06T08:59:10;52.20;;;25.93;;
62693;SDS011;48759;52.544;13.418;2024-01-06T09:01:37;47.53;;;23.40;;
62693;SDS011;48759;52.544;13.418;2024-01-06T09:04:04;45.90;;;24.17;;
62693;SDS011;48759;52.544;13.418;2024-01-06T09:06:31;48.73;;;24.10;;
62693;SDS011;48759;52.544;13.418;2024-01-06T09:08:58;46.37;;;24.50;;
62693;SDS011;48759;52.544;13.418;2024-01-06T09:11:26;50.10;;;24.63;;
62693;SDS011;48759;52.544;13.418;2024-01-06T09:13:55;45.77;;;22.53;;
62693;SDS011;48759;52.544;13.418;2024-01-06T09:16:21;43.20;;;23.57;;
62693;SDS011;48759;52.544;13.418;2024-01-06T09:18:48;46.43;;;22.80;;
62693;SDS011;48759;52.544;13.418;2024-01-06T09:21:14;43.50;;;23.90;;
62693;SDS011;48759;52.544;13.418;2024-01-06T09:23:42;44.07;;;21.97;;
62693;SDS011;48759;52.544;13.418;2024-01-06T09:26:09;45.47;;;23.63;;
62693;SDS011;48759;52.544;13.418;2024-01-06T09:28:36;43.57;;;22.90;;
62693;SDS011;48759;52.544;13.418;2024-01-06T09:31:04;41.93;;;23.13;;
62693;SDS011;48759;52.544;13.418;2024-01-06T09:33:30;38.23;;;21.33;;
62693;SDS011;48759;52.544;13.418;2024-01-06T09:35:59;43.00;;;22.93;;
62693;SDS011;48759;52.544;13.418;2024-01-06T09:38:25;42.60;;;23.83;;
62693;SDS011;48759;52.544;13.418;2024-01-06T09:40:52;44.33;;;22.60;;
62693;SDS011;48759;52.544;13.418;2024-01-06T09:43:19;37.10;;;22.10;;
62693;SDS011;48759;52.544;13.418;2024-01-06T09:45:46;40.57;;;21.83;;
62693;SDS011;48759;52.544;13.418;2024-01-06T09:48:16;42.47;;;22.70;;
62693;SDS011;48759;52.544;13.418;2024-01-06T09:50:43;46.60;;;23.27;;
62693;SDS011;48759;52.544;13.418;2024-01-06T09:53:11;46.73;;;24.00;;
62693;SDS011;48759;52.544;13.418;2024-01-06T09:55:38;62.33;;;30.43;;
62693;SDS011;48759;52.544;13.418;2024-01-06T09:58:05;53.57;;;26.63;;
62693;SDS011;48759;52.544;13.418;2024-01-06T10:00:32;42.53;;;23.20;;
62693;SDS011;48759;52.544;13.418;2024-01-06T10:02:58;59.40;;;28.33;;
62693;SDS011;48759;52.544;13.418;2024-01-06T10:05:26;80.20;;;32.77;;
62693;SDS011;48759;52.544;13.418;2024-01-06T10:07:53;55.23;;;29.10;;
62693;SDS011;48759;52.544;13.418;2024-01-06T10:10:19;58.67;;;29.00;;
62693;SDS011;48759;52.544;13.418;2024-01-06T10:12:48;46.73;;;25.27;;
62693;SDS011;48759;52.544;13.418;2024-01-06T10:15:19;53.23;;;27.70;;
62693;SDS011;48759;52.544;13.418;2024-01-06T10:17:46;62.73;;;29.10;;
62693;SDS011;48759;52.544;13.418;2024-01-06T10:20:14;113.20;;;40.83;;
62693;SDS011;48759;52.544;13.418;2024-01-06T10:22:45;64.83;;;28.20;;
62693;SDS011;48759;52.544;13.418;2024-01-06T10:25:13;61.87;;;29.53;;
62693;SDS011;48759;52.544;13.418;2024-01-06T10:27:40;66.93;;;31.87;;
62693;SDS011;48759;52.544;13.418;2024-01-06T10:30:09;49.93;;;26.80;;
62693;SDS011;48759;52.544;13.418;2024-01-06T10:32:35;56.03;;;27.40;;
62693;SDS011;48759;52.544;13.418;2024-01-06T10:35:03;45.70;;;23.30;;
62693;SDS011;48759;52.544;13.418;2024-01-06T10:37:31;48.63;;;25.30;;
62693;SDS011;48759;52.544;13.418;2024-01-06T10:40:10;43.00;;;23.90;;
62693;SDS011;48759;52.544;13.418;2024-01-06T10:42:37;50.93;;;28.90;;
62693;SDS011;48759;52.544;13.418;2024-01-06T10:45:06;46.50;;;25.80;;
62693;SDS011;48759;52.544;13.418;2024-01-06T10:47:35;42.20;;;22.37;;
62693;SDS011;48759;52.544;13.418;2024-01-06T10:50:02;37.27;;;21.77;;
62693;SDS011;48759;52.544;13.418;2024-01-06T10:52:31;39.20;;;22.07;;
62693;SDS011;48759;52.544;13.418;2024-01-06T10:55:02;53.37;;;26.90;;
62693;SDS011;48759;52.544;13.418;2024-01-06T10:57:32;43.50;;;25.20;;
62693;SDS011;48759;52.544;13.418;2024-01-06T11:00:00;42.83;;;24.87;;
62693;SDS011;48759;52.544;13.418;2024-01-06T11:02:31;50.77;;;24.90;;
62693;SDS011;48759;52.544;13.418;2024-01-06T11:04:58;37.13;;;22.30;;
62693;SDS011;48759;52.544;13.418;2024-01-06T11:07:25;38.60;;;21.10;;
62693;SDS011;48759;52.544;13.418;2024-01-06T11:09:56;39.40;;;21.20;;
62693;SDS011;48759;52.544;13.418;2024-01-06T11:12:23;41.53;;;21.70;;
62693;SDS011;48759;52.544;13.418;2024-01-06T11:14:53;41.23;;;21.80;;
62693;SDS011;48759;52.544;13.418;2024-01-06T11:20:19;37.60;;;21.40;;
62693;SDS011;48759;52.544;13.418;2024-01-06T11:22:47;43.10;;;23.67;;
62693;SDS011;48759;52.544;13.418;2024-01-06T11:25:14;42.77;;;22.27;;
62693;SDS011;48759;52.544;13.418;2024-01-06T11:27:42;35.43;;;20.70;;
62693;SDS011;48759;52.544;13.418;2024-01-06T11:30:18;36.60;;;21.23;;
62693;SDS011;48759;52.544;13.418;2024-01-06T11:32:45;42.90;;;22.57;;
62693;SDS011;48759;52.544;13.418;2024-01-06T11:35:13;38.90;;;23.13;;
62693;SDS011;48759;52.544;13.418;2024-01-06T11:37:53;43.90;;;23.60;;
62693;SDS011;48759;52.544;13.418;2024-01-06T11:43:06;39.80;;;20.50;;
62693;SDS011;48759;52.544;13.418;2024-01-06T11:45:34;39.60;;;21.30;;
62693;SDS011;48759;52.544;13.418;2024-01-06T11:48:02;41.20;;;21.97;;
62693;SDS011;48759;52.544;13.418;2024-01-06T11:50:29;38.33;;;21.03;;
62693;SDS011;48759;52.544;13.418;2024-01-06T11:52:58;41.47;;;20.83;;
62693;SDS011;48759;52.544;13.418;2024-01-06T11:55:26;35.30;;;21.97;;
62693;SDS011;48759;52.544;13.418;2024-01-06T11:57:54;36.63;;;21.00;;
62693;SDS011;48759;52.544;13.418;2024-01-06T12:00:22;40.87;;;20.00;;
62693;SDS011;48759;52.544;13.418;2024-01-06T12:02:50;32.40;;;20.20;;
62693;SDS011;48759;52.544;13.418;2024-01-06T12:05:21;33.33;;;21.23;;
62693;SDS011;48759;52.544;13.418;2024-01-06T12:07:53;41.27;;;21.13;;
62693;SDS011;48759;52.544;13.418;2024-01-06T12:10:22;38.17;;;20.97;;
62693;SDS011;48759;52.544;13.418;2024-01-06T12:12:57;34.73;;;20.97;;
62693;SDS011;48759;52.544;13.418;2024-01-06T12:15:24;33.40;;;20.43;;
62693;SDS011;48759;52.544;13.418;2024-01-06T12:17:53;36.10;;;20.77;;
62693;SDS011;48759;52.544;13.418;2024-01-06T12:20:21;31.90;;;19.63;;
62693;SDS011;48759;52.544;13.418;2024-01-06T12:22:47;38.87;;;19.50;;
62693;SDS011;48759;52.544;13.418;2024-01-06T12:25:14;31.37;;;18.70;;
62693;SDS011;48759;52.544;13.418;2024-01-06T12:27:42;36.87;;;20.37;;
62693;SDS011;48759;52.544;13.418;2024-01-06T12:30:11;35.27;;;19.40;;
62693;SDS011;48759;52.544;13.418;2024-01-06T12:32:41;32.93;;;18.70;;
62693;SDS011;48759;52.544;13.418;2024-01-06T12:35:10;37.83;;;20.20;;
62693;SDS011;48759;52.544;13.418;2024-01-06T12:37:36;33.97;;;18.80;;
62693;SDS011;48759;52.544;13.418;2024-01-06T12:40:03;31.83;;;18.07;;
62693;SDS011;48759;52.544;13.418;2024-01-06T12:42:30;34.67;;;17.53;;
62693;SDS011;48759;52.544;13.418;2024-01-06T12:44:56;35.47;;;20.17;;
62693;SDS011;48759;52.544;13.418;2024-01-06T12:47:23;31.63;;;18.50;;
62693;SDS011;48759;52.544;13.418;2024-01-06T12:49:49;34.97;;;19.30;;
62693;SDS011;48759;52.544;13.418;2024-01-06T12:52:17;32.80;;;18.90;;
62693;SDS011;48759;52.544;13.418;2024-01-06T12:54:44;32.63;;;18.63;;
62693;SDS011;48759;52.544;13.418;2024-01-06T12:57:10;33.97;;;20.30;;
62693;SDS011;48759;52.544;13.418;2024-01-06T12:59:37;34.43;;;18.73;;
62693;SDS011;48759;52.544;13.418;2024-01-06T13:02:04;29.27;;;17.87;;
62693;SDS011;48759;52.544;13.418;2024-01-06T13:04:30;42.03;;;18.63;;
62693;SDS011;48759;52.544;13.418;2024-01-06T13:06:57;34.20;;;19.40;;
62693;SDS011;48759;52.544;13.418;2024-01-06T13:09:25;44.97;;;22.97;;
62693;SDS011;48759;52.544;13.418;2024-01-06T13:11:53;31.23;;;19.50;;
62693;SDS011;48759;52.544;13.418;2024-01-06T13:14:21;36.10;;;18.60;;
62693;SDS011;48759;52.544;13.418;2024-01-06T13:16:48;45.03;;;21.03;;
62693;SDS011;48759;52.544;13.418;2024-01-06T13:19:14;38.00;;;19.70;;
62693;SDS011;48759;52.544;13.418;2024-01-06T13:21:41;33.73;;;19.00;;
62693;SDS011;48759;52.544;13.418;2024-01-06T13:24:07;42.03;;;21.57;;
62693;SDS011;48759;52.544;13.418;2024-01-06T13:26:38;34.70;;;19.67;;
62693;SDS011;48759;52.544;13.418;2024-01-06T13:29:06;31.47;;;18.17;;
62693;SDS011;48759;52.544;13.418;2024-01-06T13:31:33;38.47;;;20.13;;
62693;SDS011;48759;52.544;13.418;2024-01-06T13:33:59;35.63;;;17.97;;
62693;SDS011;48759;52.544;13.418;2024-01-06T13:36:26;52.03;;;23.83;;
62693;SDS011;48759;52.544;13.418;2024-01-06T13:38:53;34.30;;;20.43;;
62693;SDS011;48759;52.544;13.418;2024-01-06T13:41:19;45.70;;;20.07;;
62693;SDS011;48759;52.544;13.418;2024-01-06T13:43:48;37.83;;;19.60;;
62693;SDS011;48759;52.544;13.418;2024-01-06T13:46:16;29.27;;;16.43;;
62693;SDS011;48759;52.544;13.418;2024-01-06T13:48:42;32.63;;;19.83;;
62693;SDS011;48759;52.544;13.418;2024-01-06T13:51:09;30.27;;;16.90;;
62693;SDS011;48759;52.544;13.418;2024-01-06T13:53:35;25.20;;;16.10;;
62693;SDS011;48759;52.544;13.418;2024-01-06T13:56:03;29.87;;;16.33;;
62693;SDS011;48759;52.544;13.418;2024-01-06T13:58:29;29.53;;;16.90;;
62693;SDS011;48759;52.544;13.418;2024-01-06T14:00:57;27.10;;;16.17;;
62693;SDS011;48759;52.544;13.418;2024-01-06T14:03:27;26.10;;;16.23;;
62693;SDS011;48759;52.544;13.418;2024-01-06T14:05:58;30.57;;;18.90;;
62693;SDS011;48759;52.544;13.418;2024-01-06T14:08:29;25.57;;;16.77;;
62693;SDS011;48759;52.544;13.418;2024-01-06T14:10:55;30.70;;;16.83;;
62693;SDS011;48759;52.544;13.418;2024-01-06T14:13:22;25.87;;;17.00;;
62693;SDS011;48759;52.544;13.418;2024-01-06T14:15:48;27.47;;;17.40;;
62693;SDS011;48759;52.544;13.418;2024-01-06T14:18:19;32.63;;;17.47;;